Time;durP1;ratioP1;P1;durP2;ratioP2;P2;SDS_P1;SDS_P2;PMS_P1;PMS_P2;Temp;Humidity;BMP_temperature;BMP_pressure;BME280_temperature;BME280_humidity;BME280_pressure;Samples;Min_cycle;Max_cycle;Signal;HPM_P1;HPM_P2
2024/04/05 00:01:39;;;;;;;12.45;4.88;;;10.00;99.90;;;;;;5014965;28;20053;-82
2024/04/05 00:04:28;;;;;;;6.28;4.03;;;10.00;99.90;;;;;;5015051;28;20037;-83
2024/04/05 00:07:15;;;;;;;10.32;4.10;;;10.00;99.90;;;;;;5015356;28;20048;-83
2024/04/05 00:10:01;;;;;;;9.68;4.68;;;10.00;99.90;;;;;;5013980;28;20049;-86
2024/04/05 00:12:47;;;;;;;16.60;4.47;;;10.00;99.90;;;;;;5015382;28;20708;-86
2024/04/05 00:15:39;;;;;;;8.70;4.35;;;10.00;99.90;;;;;;5030181;28;20048;-83
2024/04/05 00:18:26;;;;;;;11.40;4.40;;;10.00;99.90;;;;;;5025164;28;20125;-85
2024/04/05 00:21:13;;;;;;;8.82;4.40;;;10.00;99.90;;;;;;5017887;28;20071;-85
2024/04/05 00:24:01;;;;;;;9.57;5.10;;;9.90;99.90;;;;;;5012702;28;20045;-81
2024/04/05 00:26:48;;;;;;;11.52;4.18;;;10.00;99.90;;;;;;5008172;28;20048;-85
2024/04/05 00:29:36;;;;;;;12.57;4.10;;;9.90;99.90;;;;;;5018801;28;20052;-84
2024/04/05 00:32:24;;;;;;;16.88;5.07;;;10.00;99.90;;;;;;5002789;28;20043;-84
2024/04/05 00:35:10;;;;;;;11.75;5.07;;;10.00;99.90;;;;;;5017447;28;20041;-83
2024/04/05 00:37:57;;;;;;;17.05;6.72;;;10.00;99.90;;;;;;5015910;28;20423;-85
2024/04/05 00:40:43;;;;;;;15.10;6.35;;;10.00;99.90;;;;;;5002905;28;20524;-83
2024/04/05 00:43:31;;;;;;;19.38;7.85;;;10.00;99.90;;;;;;4988496;28;20041;-85
2024/04/05 00:46:18;;;;;;;11.32;5.82;;;10.00;99.90;;;;;;5014852;28;20051;-84
2024/04/05 00:49:09;;;;;;;13.65;5.43;;;10.00;99.90;;;;;;5004396;28;20046;-79
2024/04/05 00:52:00;;;;;;;24.65;5.00;;;10.10;99.90;;;;;;4997677;28;20042;-83
2024/04/05 00:54:47;;;;;;;9.90;4.18;;;10.20;99.90;;;;;;5017126;28;20041;-84
2024/04/05 00:57:34;;;;;;;12.82;4.28;;;10.30;99.90;;;;;;5025304;28;20046;-81
2024/04/05 01:00:24;;;;;;;7.57;4.15;;;10.30;99.90;;;;;;5024335;28;20052;-85
2024/04/05 01:03:10;;;;;;;9.70;3.92;;;10.40;99.90;;;;;;5017437;28;20046;-86
2024/04/05 01:05:57;;;;;;;10.45;4.25;;;10.40;99.90;;;;;;5016434;28;20041;-83
2024/04/05 01:08:44;;;;;;;10.88;3.92;;;10.40;99.90;;;;;;5017001;28;20056;-83
2024/04/05 01:11:31;;;;;;;11.60;3.75;;;10.50;99.90;;;;;;5015621;28;20056;-85
2024/04/05 01:14:19;;;;;;;10.27;4.15;;;10.50;99.90;;;;;;5004541;28;20052;-82
2024/04/05 01:17:06;;;;;;;11.23;3.33;;;10.60;99.90;;;;;;5024891;28;20041;-85
2024/04/05 01:19:55;;;;;;;10.07;3.03;;;10.70;99.90;;;;;;5022493;28;20038;-84
2024/04/05 01:22:49;;;;;;;8.95;3.53;;;10.70;99.90;;;;;;5025987;28;20080;-82
2024/04/05 01:25:36;;;;;;;7.03;2.70;;;10.80;99.90;;;;;;5027455;28;20043;-85
2024/04/05 01:28:22;;;;;;;9.30;2.50;;;10.80;99.90;;;;;;5013293;28;20032;-85
2024/04/05 01:31:09;;;;;;;7.05;2.58;;;10.80;99.90;;;;;;5026058;28;20053;-82
2024/04/05 01:33:55;;;;;;;6.05;2.05;;;10.80;99.90;;;;;;5023900;28;20033;-84
2024/04/05 01:36:44;;;;;;;8.95;2.55;;;10.90;99.90;;;;;;5035061;28;20105;-86
2024/04/05 01:39:34;;;;;;;6.32;2.35;;;10.90;99.90;;;;;;5025176;28;20094;-84
2024/04/05 01:42:23;;;;;;;5.57;2.28;;;10.90;99.90;;;;;;5035081;28;20048;-84
2024/04/05 01:45:10;;;;;;;7.20;2.50;;;10.90;99.90;;;;;;5038248;28;20075;-84
2024/04/05 01:47:57;;;;;;;8.13;2.33;;;10.90;99.90;;;;;;5030104;28;20079;-83
2024/04/05 01:50:43;;;;;;;8.70;2.97;;;11.00;99.90;;;;;;5029483;28;20045;-83
2024/04/05 01:53:29;;;;;;;2.95;2.03;;;11.10;99.90;;;;;;5030512;28;20037;-87
2024/04/05 01:56:16;;;;;;;9.55;2.63;;;11.10;99.90;;;;;;5027312;28;20042;-81
2024/04/05 01:59:02;;;;;;;11.43;2.33;;;11.20;99.90;;;;;;5026991;28;20052;-83
2024/04/05 02:01:48;;;;;;;7.40;1.90;;;11.20;99.90;;;;;;5010437;28;20052;-84
2024/04/05 02:04:35;;;;;;;7.22;2.60;;;11.20;91.40;;;;;;5016612;28;20045;-84
2024/04/05 02:07:23;;;;;;;5.40;2.20;;;11.20;1.00;;;;;;5017362;28;20586;-85
2024/04/05 02:10:09;;;;;;;8.73;2.78;;;11.20;99.90;;;;;;5003518;28;20057;-84
2024/04/05 02:12:56;;;;;;;7.95;2.10;;;11.20;99.90;;;;;;5017978;28;20050;-83
2024/04/05 02:15:46;;;;;;;9.25;2.53;;;11.30;99.90;;;;;;5006500;28;20041;-84
2024/04/05 02:18:32;;;;;;;7.82;2.65;;;11.20;99.90;;;;;;5011952;28;20042;-84
2024/04/05 02:21:19;;;;;;;6.32;2.22;;;11.10;1.00;;;;;;5017781;28;20055;-85
2024/04/05 02:24:05;;;;;;;4.95;2.20;;;11.10;99.90;;;;;;5014976;28;20041;-82
2024/04/05 02:26:52;;;;;;;6.38;2.03;;;11.10;1.00;;;;;;5004033;28;20121;-86
2024/04/05 02:29:39;;;;;;;5.72;2.20;;;11.10;99.90;;;;;;5016720;28;20069;-84
2024/04/05 02:32:27;;;;;;;6.82;2.42;;;11.00;1.00;;;;;;5016478;28;20045;-80
2024/04/05 02:35:14;;;;;;;6.88;3.00;;;10.90;99.90;;;;;;5014281;28;20092;-87
2024/04/05 02:38:01;;;;;;;7.47;2.15;;;10.90;99.90;;;;;;5000735;28;20043;-84
2024/04/05 02:40:54;;;;;;;14.98;2.85;;;10.80;99.90;;;;;;5014773;28;20046;-83
2024/04/05 02:43:42;;;;;;;6.15;2.22;;;10.60;99.90;;;;;;5013714;28;20049;-83
2024/04/05 02:46:28;;;;;;;5.75;2.35;;;10.70;99.90;;;;;;5015854;28;20461;-85
2024/04/05 02:49:14;;;;;;;5.15;2.20;;;10.70;99.20;;;;;;5001359;28;20049;-82
2024/04/05 02:52:01;;;;;;;6.60;2.40;;;10.70;57.40;;;;;;4997575;28;20049;-83
2024/04/05 02:54:49;;;;;;;8.70;2.20;;;10.80;1.00;;;;;;5018979;28;20502;-79
2024/04/05 02:57:37;;;;;;;6.45;1.90;;;10.80;1.00;;;;;;5010265;28;20045;-85
2024/04/05 03:00:23;;;;;;;4.95;2.17;;;10.90;99.90;;;;;;5020436;28;20068;-84
2024/04/05 03:03:10;;;;;;;9.02;2.10;;;10.80;99.90;;;;;;5013410;28;20052;-87
2024/04/05 03:05:57;;;;;;;9.50;2.70;;;10.70;99.90;;;;;;5018991;28;20064;-83
2024/04/05 03:08:43;;;;;;;6.07;2.40;;;10.70;99.90;;;;;;5001118;28;20050;-85
2024/04/05 03:11:30;;;;;;;6.53;2.70;;;10.60;99.90;;;;;;5013365;28;20041;-83
2024/04/05 03:14:17;;;;;;;8.73;2.95;;;10.50;99.90;;;;;;5021976;28;20033;-83
2024/04/05 03:17:03;;;;;;;9.40;2.83;;;10.50;99.90;;;;;;5021241;28;20443;-83
2024/04/05 03:19:50;;;;;;;7.65;2.58;;;10.40;99.90;;;;;;5011395;28;20087;-84
2024/04/05 03:22:36;;;;;;;7.25;2.38;;;10.40;99.90;;;;;;5013262;28;20112;-83
2024/04/05 03:25:22;;;;;;;5.55;2.28;;;10.40;99.90;;;;;;5012689;28;20049;-84
2024/04/05 03:28:10;;;;;;;6.22;2.05;;;10.40;99.90;;;;;;5014102;28;20049;-80
2024/04/05 03:30:57;;;;;;;6.32;2.70;;;10.50;99.90;;;;;;5022136;28;20052;-85
2024/04/05 03:33:43;;;;;;;7.45;2.30;;;10.40;99.90;;;;;;5011100;28;20037;-83
2024/04/05 03:36:30;;;;;;;4.95;2.47;;;10.40;99.90;;;;;;5019540;28;20426;-83
2024/04/05 03:39:17;;;;;;;5.03;2.42;;;10.50;99.90;;;;;;5024590;28;20049;-84
2024/04/05 03:42:04;;;;;;;8.82;2.80;;;10.50;99.90;;;;;;5027037;28;20050;-85
2024/04/05 03:44:51;;;;;;;12.20;2.40;;;10.50;1.00;;;;;;5028276;28;20049;-85
2024/04/05 03:47:37;;;;;;;9.13;2.53;;;10.40;1.00;;;;;;5030728;28;20060;-83
2024/04/05 03:50:25;;;;;;;8.48;2.80;;;10.40;1.00;;;;;;5026661;28;20101;-84
2024/04/05 03:53:11;;;;;;;4.97;2.28;;;10.40;1.00;;;;;;5013769;28;20042;-85
2024/04/05 03:55:57;;;;;;;7.28;2.60;;;10.30;1.00;;;;;;5026541;28;20607;-86
2024/04/05 03:58:47;;;;;;;8.55;2.92;;;10.20;1.00;;;;;;5013375;28;20046;-85
2024/04/05 04:01:33;;;;;;;5.55;2.97;;;10.20;1.00;;;;;;5012431;28;20063;-84
2024/04/05 04:04:21;;;;;;;4.07;2.70;;;10.10;1.00;;;;;;5001456;28;20052;-83
2024/04/05 04:07:10;;;;;;;8.32;3.15;;;10.00;82.20;;;;;;5014865;28;20038;-82
2024/04/05 04:09:56;;;;;;;12.88;3.42;;;9.80;99.90;;;;;;5003939;28;20046;-80
2024/04/05 04:12:43;;;;;;;9.57;3.33;;;9.80;99.90;;;;;;5000375;28;20047;-85
2024/04/05 04:15:30;;;;;;;8.73;3.30;;;9.70;1.00;;;;;;4994293;28;20429;-84
2024/04/05 04:18:16;;;;;;;6.93;3.15;;;9.60;99.90;;;;;;5022327;28;20393;-85
2024/04/05 04:21:05;;;;;;;20.33;3.78;;;9.50;1.00;;;;;;5019579;28;20124;-84
2024/04/05 04:23:52;;;;;;;5.43;3.13;;;9.50;99.90;;;;;;5012889;28;20498;-84
2024/04/05 04:26:40;;;;;;;6.25;3.55;;;9.40;29.80;;;;;;5013363;28;20049;-84
2024/04/05 04:29:26;;;;;;;7.80;3.67;;;9.40;99.90;;;;;;5013024;28;20060;-84
2024/04/05 04:32:15;;;;;;;7.93;3.67;;;9.40;99.90;;;;;;5000258;28;20503;-84
2024/04/05 04:35:03;;;;;;;6.13;3.47;;;9.30;1.00;;;;;;5013471;28;20051;-84
2024/04/05 04:37:52;;;;;;;11.77;3.53;;;9.30;19.10;;;;;;5013951;28;20067;-86
2024/04/05 04:40:40;;;;;;;9.68;3.90;;;9.20;99.90;;;;;;5000141;28;20053;-84
2024/04/05 04:43:27;;;;;;;9.60;3.80;;;9.10;99.90;;;;;;5012911;28;20050;-84
2024/04/05 04:46:14;;;;;;;9.48;3.83;;;9.10;1.00;;;;;;5004024;28;20048;-82
2024/04/05 04:49:02;;;;;;;9.25;5.03;;;9.10;1.00;;;;;;5013328;28;20037;-83
2024/04/05 04:51:48;;;;;;;12.05;5.47;;;9.00;99.90;;;;;;5000580;28;20041;-84
2024/04/05 04:54:35;;;;;;;11.00;4.88;;;9.00;99.90;;;;;;5023220;28;20556;-82
2024/04/05 04:57:22;;;;;;;11.05;5.43;;;9.10;99.90;;;;;;5020884;28;20067;-83
2024/04/05 05:00:09;;;;;;;8.55;5.80;;;9.00;99.90;;;;;;5014577;28;20139;-81
2024/04/05 05:02:56;;;;;;;15.13;5.30;;;8.90;99.90;;;;;;5013268;28;20072;-80
2024/04/05 05:05:42;;;;;;;13.38;5.88;;;8.90;99.90;;;;;;5014535;28;20042;-79
2024/04/05 05:08:29;;;;;;;17.08;5.72;;;8.80;99.90;;;;;;5012521;28;20053;-80
2024/04/05 05:11:16;;;;;;;13.00;5.65;;;8.70;99.90;;;;;;5001551;28;20063;-82
2024/04/05 05:14:02;;;;;;;12.88;6.25;;;8.80;99.90;;;;;;5002551;28;20048;-81
2024/04/05 05:16:49;;;;;;;8.80;6.07;;;8.90;99.90;;;;;;5014092;28;20049;-81
2024/04/05 05:19:35;;;;;;;12.00;5.53;;;8.90;99.90;;;;;;5013639;28;20055;-83
2024/04/05 05:22:22;;;;;;;15.60;6.40;;;8.80;99.90;;;;;;5015067;28;20416;-85
2024/04/05 05:25:10;;;;;;;15.82;6.35;;;8.80;99.90;;;;;;5002060;28;20899;-84
2024/04/05 05:27:56;;;;;;;13.13;7.07;;;8.80;99.90;;;;;;5016993;28;20095;-83
2024/04/05 05:30:44;;;;;;;14.73;7.07;;;8.80;99.90;;;;;;5022098;28;20536;-84
2024/04/05 05:33:32;;;;;;;17.00;6.90;;;8.80;99.90;;;;;;5003417;28;20233;-80
2024/04/05 05:36:20;;;;;;;15.00;6.55;;;8.90;99.90;;;;;;4997441;28;20037;-82
2024/04/05 05:39:11;;;;;;;14.30;6.15;;;8.90;99.90;;;;;;5025021;28;20053;-81
2024/04/05 05:41:59;;;;;;;9.63;6.10;;;9.00;99.90;;;;;;5032617;28;20030;-80
2024/04/05 05:44:47;;;;;;;12.45;7.07;;;9.20;99.90;;;;;;5031598;28;20037;-82
2024/04/05 05:47:34;;;;;;;12.75;6.68;;;9.20;99.90;;;;;;5012099;28;20521;-82
2024/04/05 05:50:21;;;;;;;9.77;5.97;;;9.30;99.90;;;;;;5000751;28;20124;-82
2024/04/05 05:53:09;;;;;;;12.98;6.20;;;9.40;99.90;;;;;;5012298;28;20410;-82
2024/04/05 05:55:56;;;;;;;11.38;6.70;;;9.60;99.90;;;;;;5001179;28;20049;-81
2024/04/05 05:58:44;;;;;;;14.20;5.95;;;9.80;99.90;;;;;;5014104;28;20449;-84
2024/04/05 06:01:30;;;;;;;11.77;6.43;;;10.00;99.90;;;;;;4999231;28;20042;-83
2024/04/05 06:04:17;;;;;;;34.58;8.88;;;10.30;99.90;;;;;;5018723;28;20050;-82
2024/04/05 06:07:04;;;;;;;16.00;8.38;;;10.30;99.90;;;;;;5012923;28;20052;-83
2024/04/05 06:09:51;;;;;;;19.90;8.73;;;10.30;99.90;;;;;;5012478;28;20038;-83
2024/04/05 06:12:46;;;;;;;13.90;6.95;;;10.40;99.90;;;;;;5008014;28;20044;-81
2024/04/05 06:15:32;;;;;;;10.40;6.00;;;10.60;99.90;;;;;;5020691;28;20109;-83
2024/04/05 06:18:18;;;;;;;9.43;6.35;;;10.60;99.90;;;;;;5005012;28;20045;-82
2024/04/05 06:21:05;;;;;;;13.27;6.13;;;10.90;99.90;;;;;;5008612;28;20042;-84
2024/04/05 06:23:52;;;;;;;9.38;5.40;;;11.10;99.90;;;;;;5018203;28;20075;-79
2024/04/05 06:26:38;;;;;;;11.02;5.85;;;11.40;99.90;;;;;;5014869;28;20061;-81
2024/04/05 06:29:25;;;;;;;8.02;5.15;;;11.80;99.90;;;;;;5013465;28;20121;-83
2024/04/05 06:32:11;;;;;;;10.73;5.47;;;12.30;99.90;;;;;;5014898;28;20050;-84
2024/04/05 06:35:00;;;;;;;14.05;6.85;;;13.00;99.90;;;;;;5014246;28;20041;-83
2024/04/05 06:37:49;;;;;;;8.20;4.63;;;13.70;99.90;;;;;;5003811;28;20064;-82
2024/04/05 06:40:36;;;;;;;8.68;3.88;;;14.30;99.90;;;;;;5018628;28;20052;-82
2024/04/05 06:43:24;;;;;;;7.68;2.80;;;15.00;99.90;;;;;;5017398;28;20041;-82
2024/04/05 06:46:17;;;;;;;8.32;3.20;;;15.20;49.70;;;;;;5005421;28;20591;-83
2024/04/05 06:49:03;;;;;;;4.60;2.45;;;15.20;99.90;;;;;;5025956;28;20071;-83
2024/04/05 06:51:53;;;;;;;7.85;2.75;;;15.00;99.90;;;;;;5017983;28;20716;-79
2024/04/05 06:54:43;;;;;;;6.03;2.15;;;14.90;1.00;;;;;;5020705;28;20053;-81
2024/04/05 06:57:46;;;;;;;;;;;;;;;;;;;;;
2024/04/05 07:01:04;;;;;;;5.00;2.15;;;14.60;99.90;;;;;;5025214;28;20042;-82
2024/04/05 07:03:50;;;;;;;6.72;2.03;;;14.50;1.00;;;;;;5017416;28;20301;-83
2024/04/05 07:06:40;;;;;;;4.18;2.10;;;14.70;99.90;;;;;;5016138;28;20060;-83
2024/04/05 07:09:30;;;;;;;6.47;2.10;;;15.00;99.90;;;;;;5035826;28;20112;-78
2024/04/05 07:12:22;;;;;;;6.45;2.15;;;15.10;15.60;;;;;;5024914;28;20050;-84
2024/04/05 07:15:09;;;;;;;5.70;2.00;;;15.10;1.00;;;;;;5024346;28;20046;-82
2024/04/05 07:17:56;;;;;;;6.00;1.98;;;15.10;1.00;;;;;;5016582;28;20046;-85
2024/04/05 07:20:42;;;;;;;4.03;1.83;;;15.10;99.90;;;;;;5016634;28;20048;-83
2024/04/05 07:23:29;;;;;;;4.00;1.67;;;15.20;99.90;;;;;;5016063;28;20121;-84
2024/04/05 07:26:18;;;;;;;6.30;1.50;;;15.00;99.90;;;;;;5019475;28;20372;-84
2024/04/05 07:29:05;;;;;;;5.03;1.63;;;14.90;99.90;;;;;;5016727;28;20049;-86
2024/04/05 07:31:51;;;;;;;5.63;1.90;;;15.00;99.90;;;;;;5015978;28;20041;-87
2024/04/05 07:34:39;;;;;;;6.72;1.70;;;15.20;99.90;;;;;;5001824;28;20057;-85
2024/04/05 07:37:26;;;;;;;6.30;1.90;;;15.50;99.90;;;;;;5015034;28;20049;-83
2024/04/05 07:40:20;;;;;;;5.45;2.03;;;16.00;99.90;;;;;;5014437;28;20045;-86
2024/04/05 07:43:07;;;;;;;5.15;1.77;;;16.10;99.70;;;;;;5013022;28;20087;-83
2024/04/05 07:45:56;;;;;;;6.13;1.70;;;15.90;16.10;;;;;;5015732;28;20395;-82
2024/04/05 07:48:44;;;;;;;4.13;1.60;;;15.80;43.30;;;;;;5009976;28;20049;-83
2024/04/05 07:51:31;;;;;;;4.95;1.30;;;16.00;1.00;;;;;;5020225;28;20418;-81
2024/04/05 07:54:20;;;;;;;5.03;1.35;;;16.20;1.00;;;;;;5010738;28;20045;-83
2024/04/05 07:57:09;;;;;;;3.90;1.48;;;16.50;1.00;;;;;;5022802;28;20049;-84
2024/04/05 07:59:57;;;;;;;3.85;1.33;;;16.60;1.00;;;;;;5014827;28;20095;-84
2024/04/05 08:02:50;;;;;;;5.18;1.52;;;17.10;1.00;;;;;;5000702;28;20533;-84
2024/04/05 08:05:38;;;;;;;3.42;1.20;;;17.70;1.00;;;;;;5014833;28;20056;-85
2024/04/05 08:08:26;;;;;;;5.03;1.50;;;17.90;99.90;;;;;;5016282;28;20065;-84
2024/04/05 08:11:15;;;;;;;6.38;1.25;;;18.40;99.90;;;;;;5014401;28;20045;-83
2024/04/05 08:14:02;;;;;;;6.03;1.50;;;18.60;99.90;;;;;;5014714;28;20129;-84
2024/04/05 08:16:52;;;;;;;7.05;1.67;;;19.40;99.90;;;;;;5015142;28;20045;-83
2024/04/05 08:19:39;;;;;;;3.22;0.90;;;19.70;99.90;;;;;;5012828;28;20056;-82
2024/04/05 08:22:25;;;;;;;6.90;1.45;;;19.70;99.90;;;;;;5013862;28;20048;-83
2024/04/05 08:25:16;;;;;;;4.05;0.90;;;19.40;99.90;;;;;;5007158;28;20054;-82
2024/04/05 08:28:02;;;;;;;6.70;1.58;;;19.50;99.90;;;;;;5013749;28;20045;-81
2024/04/05 08:30:52;;;;;;;4.32;1.00;;;20.30;99.90;;;;;;5015489;28;20057;-81
2024/04/05 08:33:41;;;;;;;2.13;1.00;;;20.90;99.90;;;;;;5019864;28;20061;-78
2024/04/05 08:36:28;;;;;;;7.07;1.33;;;20.50;99.90;;;;;;5024633;28;20121;-82
2024/04/05 08:39:17;;;;;;;5.13;1.17;;;20.30;99.90;;;;;;5018306;28;20041;-83
2024/04/05 08:42:13;;;;;;;2.67;1.13;;;20.90;99.90;;;;;;5014381;28;20429;-82
2024/04/05 08:45:04;;;;;;;3.47;1.20;;;21.40;99.90;;;;;;5023143;28;20053;-83
2024/04/05 08:47:58;;;;;;;2.58;1.27;;;21.70;99.90;;;;;;5014036;28;20056;-83
2024/04/05 08:50:44;;;;;;;3.33;1.02;;;21.30;80.10;;;;;;5014265;28;20498;-79
2024/04/05 08:53:33;;;;;;;2.35;1.23;;;21.10;55.30;;;;;;5000271;28;20053;-85
2024/04/05 08:56:21;;;;;;;1.83;1.00;;;21.00;50.30;;;;;;5014300;28;20046;-84
2024/04/05 08:59:09;;;;;;;3.58;1.20;;;21.30;46.70;;;;;;5012860;28;20050;-84
2024/04/05 09:02:00;;;;;;;5.63;1.15;;;21.50;37.90;;;;;;5015230;28;20038;-87
2024/04/05 09:04:51;;;;;;;1.95;1.10;;;21.80;29.10;;;;;;5007214;28;20045;-81
2024/04/05 09:07:38;;;;;;;3.85;1.05;;;22.30;26.00;;;;;;5014593;28;20049;-82
2024/04/05 09:10:26;;;;;;;2.55;1.00;;;22.10;11.40;;;;;;5014018;28;20045;-84
2024/04/05 09:13:12;;;;;;;2.55;0.95;;;21.40;8.70;;;;;;5013135;28;20417;-81
2024/04/05 09:16:02;;;;;;;2.65;0.98;;;21.30;8.50;;;;;;4995054;28;20796;-82
2024/04/05 09:18:49;;;;;;;4.72;1.38;;;21.50;12.80;;;;;;5020271;28;20499;-83
2024/04/05 09:21:42;;;;;;;3.58;0.88;;;21.90;4.30;;;;;;5022841;28;20052;-84
2024/04/05 09:24:29;;;;;;;3.58;0.73;;;22.10;5.20;;;;;;5020635;28;20045;-81
2024/04/05 09:27:20;;;;;;;8.18;1.45;;;21.60;1.00;;;;;;5016393;28;20051;-80
2024/04/05 09:30:08;;;;;;;1.95;1.20;;;21.20;1.00;;;;;;5007724;28;20049;-80
2024/04/05 09:32:58;;;;;;;4.35;1.20;;;21.40;1.00;;;;;;5019990;28;20506;-82
2024/04/05 09:35:45;;;;;;;4.45;1.00;;;21.50;1.00;;;;;;5014313;28;20046;-80
2024/04/05 09:38:34;;;;;;;4.90;1.42;;;21.00;1.00;;;;;;5013187;28;20467;-79
2024/04/05 09:41:23;;;;;;;3.53;0.93;;;20.90;1.00;;;;;;5012046;28;20038;-79
2024/04/05 09:44:11;;;;;;;4.32;1.45;;;21.30;1.00;;;;;;5020569;28;20052;-81
2024/04/05 09:46:59;;;;;;;4.43;1.27;;;21.10;1.00;;;;;;5031114;28;20038;-83
2024/04/05 09:49:46;;;;;;;2.85;1.10;;;21.20;1.00;;;;;;5021810;28;20042;-82
2024/04/05 09:52:37;;;;;;;2.83;1.10;;;21.30;1.00;;;;;;5026264;28;20041;-83
2024/04/05 09:55:28;;;;;;;2.58;1.00;;;21.90;1.00;;;;;;5013534;28;20517;-82
2024/04/05 09:58:15;;;;;;;2.42;1.02;;;22.10;1.00;;;;;;5013109;28;20044;-85
2024/04/05 10:01:07;;;;;;;1.30;0.65;;;22.50;1.00;;;;;;5013739;28;20052;-83
2024/04/05 10:03:54;;;;;;;2.30;0.90;;;22.50;1.00;;;;;;5013918;28;20042;-80
2024/04/05 10:06:42;;;;;;;3.38;1.02;;;22.90;1.00;;;;;;5008718;28;20056;-81
2024/04/05 10:09:35;;;;;;;2.70;0.88;;;22.60;1.00;;;;;;5022558;28;20618;-84
2024/04/05 10:12:24;;;;;;;2.65;0.90;;;22.40;1.00;;;;;;5007751;28;20148;-80
2024/04/05 10:15:11;;;;;;;3.42;1.02;;;22.10;1.00;;;;;;5012177;28;20402;-82
2024/04/05 10:17:57;;;;;;;6.20;2.70;;;22.20;1.00;;;;;;5020703;28;20056;-82
2024/04/05 10:20:44;;;;;;;4.30;1.08;;;22.90;1.00;;;;;;5014861;28;20060;-82
2024/04/05 10:23:34;;;;;;;2.85;1.17;;;22.60;1.00;;;;;;5018278;28;20046;-84
2024/04/05 10:26:22;;;;;;;2.97;1.20;;;22.70;1.00;;;;;;5016939;28;20068;-84
2024/04/05 10:29:09;;;;;;;1.92;0.90;;;23.40;1.00;;;;;;5016321;28;20398;-83
2024/04/05 10:32:16;;;;;;;2.30;0.82;;;23.40;1.00;;;;;;5014604;28;20096;-81
2024/04/05 10:35:06;;;;;;;4.63;1.00;;;23.00;1.00;;;;;;5015307;28;20045;-84
2024/04/05 10:37:58;;;;;;;3.92;0.73;;;23.00;1.00;;;;;;5011210;28;20050;-81
2024/04/05 10:40:56;;;;;;;3.45;0.95;;;22.10;1.00;;;;;;5007930;28;20037;-81
2024/04/05 10:43:43;;;;;;;2.30;1.00;;;21.90;1.00;;;;;;5018951;28;20060;-82
2024/04/05 10:46:36;;;;;;;4.38;0.88;;;21.50;1.00;;;;;;5016304;28;20528;-84
2024/04/05 10:49:23;;;;;;;2.13;0.85;;;21.20;1.00;;;;;;5018266;28;20429;-83
2024/04/05 10:52:09;;;;;;;4.30;0.80;;;21.10;1.00;;;;;;5019673;28;20049;-85
2024/04/05 10:55:08;;;;;;;3.60;1.15;;;21.30;1.00;;;;;;5019362;28;20117;-83
2024/04/05 10:57:58;;;;;;;2.15;0.55;;;21.20;1.00;;;;;;5016023;28;20046;-82
2024/04/05 11:00:46;;;;;;;1.15;0.88;;;21.00;1.00;;;;;;5019926;28;20038;-82
2024/04/05 11:03:32;;;;;;;1.00;0.60;;;20.90;1.00;;;;;;5019518;28;20057;-82
2024/04/05 11:06:18;;;;;;;1.55;0.85;;;20.90;1.00;;;;;;5011206;28;20559;-83
2024/04/05 11:09:07;;;;;;;2.85;0.73;;;20.80;1.00;;;;;;5016460;28;20056;-86
2024/04/05 11:11:59;;;;;;;2.58;1.00;;;21.00;1.00;;;;;;5020221;28;20037;-82
2024/04/05 11:14:47;;;;;;;1.35;0.70;;;21.20;1.00;;;;;;5030105;28;20470;-83
2024/04/05 11:17:34;;;;;;;3.10;0.80;;;21.30;1.00;;;;;;5005598;28;20048;-80
2024/04/05 11:20:21;;;;;;;1.00;0.80;;;21.40;1.00;;;;;;5000191;28;20045;-82
2024/04/05 11:23:19;;;;;;;2.75;1.02;;;21.40;1.00;;;;;;5017149;28;20038;-83
2024/04/05 11:26:06;;;;;;;2.50;0.70;;;21.20;1.00;;;;;;5011832;28;20061;-82
2024/04/05 11:28:52;;;;;;;2.90;0.90;;;21.30;1.00;;;;;;5004776;28;20047;-84
2024/04/05 11:31:39;;;;;;;2.50;0.77;;;21.40;1.00;;;;;;5017574;28;20438;-83
2024/04/05 11:34:26;;;;;;;2.28;1.15;;;21.60;1.00;;;;;;5015143;28;20148;-86
2024/04/05 11:37:30;;;;;;;2.60;0.90;;;21.70;1.00;;;;;;5015895;28;20049;-82
2024/04/05 11:40:17;;;;;;;2.17;0.80;;;21.50;1.00;;;;;;5017015;28;20045;-83
2024/04/05 11:43:08;;;;;;;3.53;1.02;;;21.60;1.00;;;;;;5017796;28;20049;-82
2024/04/05 11:45:55;;;;;;;2.72;0.90;;;21.80;1.00;;;;;;5015557;28;20103;-82
2024/04/05 11:48:42;;;;;;;1.17;0.75;;;22.20;1.00;;;;;;5009940;28;20048;-77
2024/04/05 11:51:29;;;;;;;2.35;0.65;;;23.80;1.00;;;;;;5021998;28;20052;-84
2024/04/05 11:54:17;;;;;;;4.10;0.90;;;24.70;1.00;;;;;;5004614;28;20143;-79
2024/04/05 11:57:05;;;;;;;1.27;0.70;;;26.40;1.00;;;;;;5021205;28;20037;-81
2024/04/05 11:59:51;;;;;;;3.05;0.70;;;26.20;1.00;;;;;;5015218;28;20041;-82
2024/04/05 12:02:39;;;;;;;2.28;0.60;;;25.70;1.00;;;;;;5012758;28;20041;-82
2024/04/05 12:05:26;;;;;;;2.42;0.80;;;24.80;1.00;;;;;;5013980;28;20137;-83
2024/04/05 12:08:13;;;;;;;3.17;0.80;;;24.30;1.00;;;;;;5011312;28;20624;-82
2024/04/05 12:10:59;;;;;;;1.67;0.80;;;24.50;1.00;;;;;;5000260;28;20056;-82
2024/04/05 12:13:49;;;;;;;2.70;0.60;;;25.10;1.00;;;;;;5012008;28;20053;-84
2024/04/05 12:16:36;;;;;;;3.40;0.82;;;25.70;1.00;;;;;;5013780;28;20045;-84
2024/04/05 12:19:22;;;;;;;2.03;0.77;;;26.10;1.00;;;;;;5013181;28;20053;-83
2024/04/05 12:22:09;;;;;;;4.15;0.90;;;26.20;1.00;;;;;;5019286;28;20123;-82
2024/04/05 12:24:56;;;;;;;2.92;0.73;;;26.50;1.00;;;;;;4988412;28;20045;-82
2024/04/05 12:27:44;;;;;;;1.15;0.63;;;26.10;1.00;;;;;;5015318;28;20433;-82
2024/04/05 12:30:32;;;;;;;2.15;0.63;;;25.10;1.00;;;;;;5005820;28;20037;-78
2024/04/05 12:33:19;;;;;;;2.90;0.80;;;24.80;1.00;;;;;;5019624;28;20451;-83
2024/04/05 12:36:06;;;;;;;2.67;0.77;;;25.10;1.00;;;;;;4997619;28;20050;-83
2024/04/05 12:38:56;;;;;;;2.08;0.75;;;24.60;1.00;;;;;;5012780;28;20050;-83
2024/04/05 12:41:44;;;;;;;1.88;0.60;;;23.80;1.00;;;;;;5019109;28;20124;-82
2024/04/05 12:44:31;;;;;;;1.58;0.60;;;23.80;1.00;;;;;;5010247;28;20033;-84
2024/04/05 12:47:17;;;;;;;3.80;0.65;;;23.90;1.00;;;;;;5015530;28;20079;-86
2024/04/05 12:50:04;;;;;;;1.30;0.80;;;24.10;1.00;;;;;;5023800;28;20042;-82
2024/04/05 12:52:51;;;;;;;1.55;0.55;;;24.00;1.00;;;;;;5029134;28;20049;-84
2024/04/05 12:55:37;;;;;;;3.72;0.90;;;23.10;1.00;;;;;;5029425;28;20052;-81
2024/04/05 12:58:40;;;;;;;2.45;0.70;;;22.20;1.00;;;;;;5029141;28;20049;-82
2024/04/05 13:01:28;;;;;;;0.88;0.60;;;21.70;1.00;;;;;;5029968;28;20049;-82
2024/04/05 13:04:16;;;;;;;3.83;1.17;;;21.40;1.00;;;;;;5015329;28;20509;-83
2024/04/05 13:07:04;;;;;;;3.85;0.80;;;21.20;1.00;;;;;;5019249;28;20041;-78
2024/04/05 13:09:51;;;;;;;2.72;0.75;;;21.00;1.00;;;;;;5012842;28;20045;-81
2024/04/05 13:12:38;;;;;;;4.45;0.90;;;20.80;1.00;;;;;;5015622;28;20054;-76
2024/04/05 13:15:24;;;;;;;2.30;0.85;;;20.70;1.00;;;;;;5020386;28;20033;-86
2024/04/05 13:18:11;;;;;;;4.35;0.82;;;20.70;1.00;;;;;;5013697;28;20052;-77
2024/04/05 13:21:11;;;;;;;2.13;0.73;;;20.60;1.00;;;;;;5009745;28;20114;-84
2024/04/05 13:23:58;;;;;;;1.27;0.68;;;20.60;1.00;;;;;;5013068;28;20107;-84
2024/04/05 13:26:45;;;;;;;1.65;0.80;;;20.70;1.00;;;;;;4993873;28;20041;-83
2024/04/05 13:29:31;;;;;;;1.00;0.70;;;20.90;1.00;;;;;;5010922;28;20053;-86
2024/04/05 13:32:20;;;;;;;1.50;0.85;;;21.10;1.00;;;;;;5010480;28;20113;-82
2024/04/05 13:35:07;;;;;;;1.55;0.88;;;21.00;1.00;;;;;;5029510;28;20037;-80
2024/04/05 13:37:53;;;;;;;1.15;0.70;;;21.00;1.00;;;;;;5010386;28;20126;-83
2024/04/05 13:40:41;;;;;;;3.88;0.95;;;20.90;1.00;;;;;;5010671;28;20053;-82
2024/04/05 13:43:30;;;;;;;2.90;0.77;;;21.20;1.00;;;;;;5015406;28;20052;-83
2024/04/05 13:46:18;;;;;;;1.58;0.70;;;22.00;1.00;;;;;;5012666;28;20450;-84
2024/04/05 13:49:05;;;;;;;3.85;0.70;;;22.20;1.00;;;;;;5014004;28;20477;-82
2024/04/05 13:51:51;;;;;;;1.23;0.70;;;22.00;1.00;;;;;;4999885;28;20395;-82
2024/04/05 13:54:40;;;;;;;4.10;0.70;;;21.70;1.00;;;;;;5021830;28;20119;-81
2024/04/05 13:57:32;;;;;;;1.42;0.70;;;21.70;1.00;;;;;;5020636;28;20160;-82
2024/04/05 14:00:20;;;;;;;2.67;0.80;;;21.60;1.00;;;;;;5012279;28;20059;-84
2024/04/05 14:03:06;;;;;;;2.28;1.00;;;21.50;1.00;;;;;;5011680;28;20458;-86
2024/04/05 14:05:54;;;;;;;3.80;0.95;;;21.40;1.00;;;;;;4996115;28;20053;-84
2024/04/05 14:08:41;;;;;;;2.28;0.70;;;21.50;1.00;;;;;;4997771;28;20148;-83
2024/04/05 14:11:27;;;;;;;2.47;0.75;;;21.50;1.00;;;;;;4998791;28;20564;-84
2024/04/05 14:14:15;;;;;;;3.05;1.00;;;21.50;1.00;;;;;;5011000;28;20076;-85
2024/04/05 14:17:02;;;;;;;1.77;1.00;;;21.40;1.00;;;;;;5011979;28;20050;-83
2024/04/05 14:19:49;;;;;;;2.35;0.88;;;21.30;1.00;;;;;;4997326;28;20050;-82
2024/04/05 14:22:36;;;;;;;2.22;0.80;;;21.30;1.00;;;;;;5011288;28;20046;-81
2024/04/05 14:25:24;;;;;;;3.20;1.20;;;21.30;1.00;;;;;;5011008;28;20052;-82
2024/04/05 14:28:11;;;;;;;6.68;1.13;;;21.10;1.00;;;;;;5015889;28;20049;-82
2024/04/05 14:30:59;;;;;;;3.85;0.90;;;21.00;1.00;;;;;;5012116;28;20049;-82
2024/04/05 14:33:48;;;;;;;3.67;0.90;;;20.90;1.00;;;;;;5002538;28;20121;-82
2024/04/05 14:36:34;;;;;;;3.22;0.88;;;20.70;1.00;;;;;;5019808;28;20091;-82
2024/04/05 14:39:22;;;;;;;1.10;0.60;;;20.80;1.00;;;;;;5022069;28;20061;-85
2024/04/05 14:42:10;;;;;;;1.55;0.77;;;20.80;1.00;;;;;;5011612;28;20046;-82